sensor_id;sensor_type;location;lat;lon;timestamp;pressure;altitude;pressure_sealevel;temperature;humidity
24230;BME280;12362;50.004;8.006;2023-07-22T00:01:14;100451.84;;;14.98;100.00
24230;BME280;12362;50.004;8.006;2023-07-22T00:03:39;100451.41;;;14.79;100.00
24230;BME280;12362;50.004;8.006;2023-07-22T00:06:06;100453.56;;;14.73;100.00
24230;BME280;12362;50.004;8.006;2023-07-22T00:08:33;100452.97;;;14.82;100.00
24230;BME280;12362;50.004;8.006;2023-07-22T00:10:58;100442.19;;;14.86;100.00
24230;BME280;12362;50.004;8.006;2023-07-22T00:13:24;100444.72;;;14.88;100.00
24230;BME280;12362;50.004;8.006;2023-07-22T00:15:53;100445.25;;;14.93;100.00
24230;BME280;12362;50.004;8.006;2023-07-22T00:18:19;100436.88;;;14.88;100.00
24230;BME280;12362;50.004;8.006;2023-07-22T00:20:44;100441.81;;;14.92;100.00
24230;BME280;12362;50.004;8.006;2023-07-22T00:23:10;100442.19;;;14.86;100.00
24230;BME280;12362;50.004;8.006;2023-07-22T00:25:36;100440.94;;;14.79;100.00
24230;BME280;12362;50.004;8.006;2023-07-22T00:28:01;100437.94;;;14.85;100.00
24230;BME280;12362;50.004;8.006;2023-07-22T00:30:27;100438.88;;;14.84;100.00
24230;BME280;12362;50.004;8.006;2023-07-22T00:32:53;100441.97;;;14.77;100.00
24230;BME280;12362;50.004;8.006;2023-07-22T00:35:19;100444.91;;;14.72;100.00
24230;BME280;12362;50.004;8.006;2023-07-22T00:37:44;100438.75;;;14.73;100.00
24230;BME280;12362;50.004;8.006;2023-07-22T00:40:11;100436.91;;;14.61;100.00
24230;BME280;12362;50.004;8.006;2023-07-22T00:42:38;100440.66;;;14.57;100.00
24230;BME280;12362;50.004;8.006;2023-07-22T00:45:04;100442.22;;;14.60;100.00
24230;BME280;12362;50.004;8.006;2023-07-22T00:47:29;100445.56;;;14.62;100.00
24230;BME280;12362;50.004;8.006;2023-07-22T00:49:55;100444.16;;;14.44;100.00
24230;BME280;12362;50.004;8.006;2023-07-22T00:52:21;100445.16;;;14.42;100.00
24230;BME280;12362;50.004;8.006;2023-07-22T00:54:47;100451.78;;;14.47;100.00
24230;BME280;12362;50.004;8.006;2023-07-22T00:57:12;100455.53;;;14.43;100.00
24230;BME280;12362;50.004;8.006;2023-07-22T00:59:39;100456.25;;;14.45;100.00
24230;BME280;12362;50.004;8.006;2023-07-22T01:02:05;100456.47;;;14.42;100.00
24230;BME280;12362;50.004;8.006;2023-07-22T01:04:33;100460.97;;;14.26;100.00
24230;BME280;12362;50.004;8.006;2023-07-22T01:07:00;100455.13;;;14.23;100.00
24230;BME280;12362;50.004;8.006;2023-07-22T01:09:35;100445.13;;;14.15;100.00
24230;BME280;12362;50.004;8.006;2023-07-22T01:12:00;100455.75;;;14.12;100.00
24230;BME280;12362;50.004;8.006;2023-07-22T01:14:26;100449.25;;;14.19;100.00
24230;BME280;12362;50.004;8.006;2023-07-22T01:16:51;100454.66;;;14.16;100.00
24230;BME280;12362;50.004;8.006;2023-07-22T01:19:18;100448.94;;;14.10;100.00
24230;BME280;12362;50.004;8.006;2023-07-22T01:21:44;100446.25;;;13.97;100.00
24230;BME280;12362;50.004;8.006;2023-07-22T01:24:12;100445.34;;;13.84;100.00
24230;BME280;12362;50.004;8.006;2023-07-22T01:26:38;100450.72;;;13.81;100.00
24230;BME280;12362;50.004;8.006;2023-07-22T01:29:06;100451.09;;;13.75;100.00
24230;BME280;12362;50.004;8.006;2023-07-22T01:31:35;100437.69;;;13.67;100.00
24230;BME280;12362;50.004;8.006;2023-07-22T01:34:01;100443.47;;;13.59;100.00
24230;BME280;12362;50.004;8.006;2023-07-22T01:36:27;100457.88;;;13.50;100.00
24230;BME280;12362;50.004;8.006;2023-07-22T01:38:52;100464.66;;;13.39;100.00
24230;BME280;12362;50.004;8.006;2023-07-22T01:41:18;100455.41;;;13.19;100.00
24230;BME280;12362;50.004;8.006;2023-07-22T01:43:43;100457.34;;;13.16;100.00
24230;BME280;12362;50.004;8.006;2023-07-22T01:46:09;100461.16;;;13.10;100.00
24230;BME280;12362;50.004;8.006;2023-07-22T01:48:34;100460.38;;;12.94;100.00
24230;BME280;12362;50.004;8.006;2023-07-22T01:50:59;100462.03;;;12.95;100.00
24230;BME280;12362;50.004;8.006;2023-07-22T01:53:25;100456.63;;;12.98;100.00
24230;BME280;12362;50.004;8.006;2023-07-22T01:55:50;100455.97;;;12.95;100.00
24230;BME280;12362;50.004;8.006;2023-07-22T01:58:16;100451.44;;;12.83;100.00
24230;BME280;12362;50.004;8.006;2023-07-22T02:00:42;100456.81;;;12.80;100.00
24230;BME280;12362;50.004;8.006;2023-07-22T02:03:07;100457.94;;;12.76;100.00
24230;BME280;12362;50.004;8.006;2023-07-22T02:05:33;100446.06;;;12.86;100.00
24230;BME280;12362;50.004;8.006;2023-07-22T02:07:59;100447.69;;;12.73;100.00
24230;BME280;12362;50.004;8.006;2023-07-22T02:10:24;100453.06;;;12.70;100.00
24230;BME280;12362;50.004;8.006;2023-07-22T02:12:49;100462.66;;;12.69;100.00
24230;BME280;12362;50.004;8.006;2023-07-22T02:15:15;100459.94;;;12.71;100.00
24230;BME280;12362;50.004;8.006;2023-07-22T02:17:41;100463.16;;;12.61;100.00
24230;BME280;12362;50.004;8.006;2023-07-22T02:20:07;100462.41;;;12.59;100.00
24230;BME280;12362;50.004;8.006;2023-07-22T02:22:34;100458.13;;;12.58;100.00
24230;BME280;12362;50.004;8.006;2023-07-22T02:24:59;100458.13;;;12.58;100.00
24230;BME280;12362;50.004;8.006;2023-07-22T02:27:25;100465.44;;;12.51;100.00
24230;BME280;12362;50.004;8.006;2023-07-22T02:29:50;100474.44;;;12.46;100.00
24230;BME280;12362;50.004;8.006;2023-07-22T02:32:17;100474.19;;;12.35;100.00
24230;BME280;12362;50.004;8.006;2023-07-22T02:34:43;100470.41;;;12.25;100.00
24230;BME280;12362;50.004;8.006;2023-07-22T02:37:08;100469.63;;;12.07;100.00
24230;BME280;12362;50.004;8.006;2023-07-22T02:39:34;100475.06;;;12.03;100.00
24230;BME280;12362;50.004;8.006;2023-07-22T02:42:00;100475.81;;;12.05;100.00
24230;BME280;12362;50.004;8.006;2023-07-22T02:44:26;100478.69;;;12.16;100.00
24230;BME280;12362;50.004;8.006;2023-07-22T02:46:51;100480.22;;;12.20;100.00
24230;BME280;12362;50.004;8.006;2023-07-22T02:49:18;100477.25;;;12.10;100.00
24230;BME280;12362;50.004;8.006;2023-07-22T02:51:43;100480.72;;;12.11;100.00
24230;BME280;12362;50.004;8.006;2023-07-22T02:54:09;100480.97;;;12.06;100.00
24230;BME280;12362;50.004;8.006;2023-07-22T02:56:34;100478.25;;;12.08;100.00
24230;BME280;12362;50.004;8.006;2023-07-22T02:59:00;100476.56;;;11.91;100.00
24230;BME280;12362;50.004;8.006;2023-07-22T03:01:25;100470.69;;;11.88;100.00
24230;BME280;12362;50.004;8.006;2023-07-22T03:03:51;100476.72;;;11.88;100.00
24230;BME280;12362;50.004;8.006;2023-07-22T03:06:16;100478.00;;;11.97;100.00
24230;BME280;12362;50.004;8.006;2023-07-22T03:08:42;100478.75;;;11.99;100.00
24230;BME280;12362;50.004;8.006;2023-07-22T03:11:08;100482.78;;;12.04;100.00
24230;BME280;12362;50.004;8.006;2023-07-22T03:13:33;100476.97;;;11.99;100.00
24230;BME280;12362;50.004;8.006;2023-07-22T03:16:00;100479.94;;;11.93;100.00
24230;BME280;12362;50.004;8.006;2023-07-22T03:18:30;100484.72;;;12.01;100.00
24230;BME280;12362;50.004;8.006;2023-07-22T03:20:56;100485.13;;;11.93;100.00
24230;BME280;12362;50.004;8.006;2023-07-22T03:23:22;100485.16;;;11.77;100.00
24230;BME280;12362;50.004;8.006;2023-07-22T03:25:48;100495.53;;;11.61;100.00
24230;BME280;12362;50.004;8.006;2023-07-22T03:28:13;100496.97;;;11.67;100.00
24230;BME280;12362;50.004;8.006;2023-07-22T03:30:39;100491.81;;;11.48;100.00
24230;BME280;12362;50.004;8.006;2023-07-22T03:33:05;100495.38;;;11.30;100.00
24230;BME280;12362;50.004;8.006;2023-07-22T03:35:31;100491.38;;;11.40;100.00
24230;BME280;12362;50.004;8.006;2023-07-22T03:37:58;100491.75;;;11.33;100.00
24230;BME280;12362;50.004;8.006;2023-07-22T03:40:23;100496.34;;;11.28;100.00
24230;BME280;12362;50.004;8.006;2023-07-22T03:42:53;100501.47;;;11.29;100.00
24230;BME280;12362;50.004;8.006;2023-07-22T03:45:20;100496.50;;;11.42;100.00
24230;BME280;12362;50.004;8.006;2023-07-22T03:47:51;100495.66;;;11.41;100.00
24230;BME280;12362;50.004;8.006;2023-07-22T03:50:18;100502.03;;;11.53;100.00
24230;BME280;12362;50.004;8.006;2023-07-22T03:52:44;100491.69;;;11.51;100.00
24230;BME280;12362;50.004;8.006;2023-07-22T03:55:09;100493.75;;;11.45;100.00
24230;BME280;12362;50.004;8.006;2023-07-22T03:57:35;100494.44;;;11.48;100.00
24230;BME280;12362;50.004;8.006;2023-07-22T04:00:00;100494.22;;;11.53;100.00
24230;BME280;12362;50.004;8.006;2023-07-22T04:02:26;100489.47;;;11.61;100.00
24230;BME280;12362;50.004;8.006;2023-07-22T04:04:53;100486.13;;;11.59;100.00
24230;BME280;12362;50.004;8.006;2023-07-22T04:07:19;100490.06;;;11.49;100.00
24230;BME280;12362;50.004;8.006;2023-07-22T04:09:45;100492.50;;;11.52;100.00
24230;BME280;12362;50.004;8.006;2023-07-22T04:12:10;100496.44;;;11.60;100.00
24230;BME280;12362;50.004;8.006;2023-07-22T04:14:36;100486.72;;;11.64;100.00
24230;BME280;12362;50.004;8.006;2023-07-22T04:17:02;100488.97;;;11.54;100.00
24230;BME280;12362;50.004;8.006;2023-07-22T04:19:31;100489.88;;;11.53;100.00
24230;BME280;12362;50.004;8.006;2023-07-22T04:21:56;100481.06;;;11.56;100.00
24230;BME280;12362;50.004;8.006;2023-07-22T04:24:22;100484.97;;;11.64;100.00
24230;BME280;12362;50.004;8.006;2023-07-22T04:26:48;100484.16;;;11.79;100.00
24230;BME280;12362;50.004;8.006;2023-07-22T04:29:13;100483.56;;;11.74;100.00
24230;BME280;12362;50.004;8.006;2023-07-22T04:31:39;100493.34;;;11.69;100.00
24230;BME280;12362;50.004;8.006;2023-07-22T04:34:05;100490.88;;;11.83;100.00
24230;BME280;12362;50.004;8.006;2023-07-22T04:36:32;100493.75;;;11.94;100.00
24230;BME280;12362;50.004;8.006;2023-07-22T04:38:57;100491.69;;;12.00;100.00
24230;BME280;12362;50.004;8.006;2023-07-22T04:41:23;100498.31;;;12.06;100.00
24230;BME280;12362;50.004;8.006;2023-07-22T04:43:49;100495.16;;;12.16;100.00
24230;BME280;12362;50.004;8.006;2023-07-22T04:46:16;100487.00;;;12.22;100.00
24230;BME280;12362;50.004;8.006;2023-07-22T04:48:42;100493.91;;;12.39;100.00
24230;BME280;12362;50.004;8.006;2023-07-22T04:51:07;100490.72;;;12.49;100.00
24230;BME280;12362;50.004;8.006;2023-07-22T04:53:33;100496.28;;;12.59;100.00
24230;BME280;12362;50.004;8.006;2023-07-22T04:55:58;100492.06;;;12.71;100.00
24230;BME280;12362;50.004;8.006;2023-07-22T04:58:24;100488.28;;;12.77;100.00
24230;BME280;12362;50.004;8.006;2023-07-22T05:00:49;100490.22;;;12.89;100.00
24230;BME280;12362;50.004;8.006;2023-07-22T05:03:15;100483.28;;;13.03;100.00
24230;BME280;12362;50.004;8.006;2023-07-22T05:05:41;100482.50;;;13.17;100.00
24230;BME280;12362;50.004;8.006;2023-07-22T05:08:07;100481.50;;;13.33;100.00
24230;BME280;12362;50.004;8.006;2023-07-22T05:10:33;100482.19;;;13.51;100.00
24230;BME280;12362;50.004;8.006;2023-07-22T05:12:59;100484.06;;;13.62;100.00
24230;BME280;12362;50.004;8.006;2023-07-22T05:15:25;100477.19;;;13.75;100.00
24230;BME280;12362;50.004;8.006;2023-07-22T05:17:51;100480.66;;;13.90;100.00
24230;BME280;12362;50.004;8.006;2023-07-22T05:20:16;100481.69;;;14.15;100.00
24230;BME280;12362;50.004;8.006;2023-07-22T05:22:42;100482.97;;;14.36;100.00
24230;BME280;12362;50.004;8.006;2023-07-22T05:25:08;100485.75;;;14.47;100.00
24230;BME280;12362;50.004;8.006;2023-07-22T05:27:35;100481.34;;;14.61;100.00
24230;BME280;12362;50.004;8.006;2023-07-22T05:30:01;100484.81;;;14.74;100.00
24230;BME280;12362;50.004;8.006;2023-07-22T05:32:28;100491.25;;;14.83;100.00
24230;BME280;12362;50.004;8.006;2023-07-22T05:34:55;100486.56;;;14.88;100.00
24230;BME280;12362;50.004;8.006;2023-07-22T05:37:20;100493.81;;;14.97;100.00
24230;BME280;12362;50.004;8.006;2023-07-22T05:39:46;100489.56;;;15.08;100.00
24230;BME280;12362;50.004;8.006;2023-07-22T05:42:11;100480.06;;;15.20;100.00
24230;BME280;12362;50.004;8.006;2023-07-22T05:44:36;100481.28;;;15.28;100.00
24230;BME280;12362;50.004;8.006;2023-07-22T05:47:02;100484.63;;;15.43;100.00
24230;BME280;12362;50.004;8.006;2023-07-22T05:49:27;100486.09;;;15.59;100.00
24230;BME280;12362;50.004;8.006;2023-07-22T05:51:53;100476.41;;;15.73;100.00
24230;BME280;12362;50.004;8.006;2023-07-22T05:54:20;100477.75;;;15.91;100.00
24230;BME280;12362;50.004;8.006;2023-07-22T05:56:46;100474.56;;;16.11;100.00
24230;BME280;12362;50.004;8.006;2023-07-22T05:59:14;100472.25;;;16.32;100.00
24230;BME280;12362;50.004;8.006;2023-07-22T06:01:40;100480.13;;;16.32;100.00
24230;BME280;12362;50.004;8.006;2023-07-22T06:04:06;100482.72;;;16.44;100.00
24230;BME280;12362;50.004;8.006;2023-07-22T06:06:31;100477.94;;;16.61;100.00
24230;BME280;12362;50.004;8.006;2023-07-22T06:08:57;100481.03;;;16.79;100.00
24230;BME280;12362;50.004;8.006;2023-07-22T06:11:22;100489.91;;;16.89;100.00
24230;BME280;12362;50.004;8.006;2023-07-22T06:13:48;100482.06;;;17.00;100.00
24230;BME280;12362;50.004;8.006;2023-07-22T06:16:13;100473.72;;;17.06;100.00
24230;BME280;12362;50.004;8.006;2023-07-22T06:18:39;100470.72;;;17.23;100.00
24230;BME280;12362;50.004;8.006;2023-07-22T06:21:05;100474.47;;;17.31;100.00
24230;BME280;12362;50.004;8.006;2023-07-22T06:23:30;100471.72;;;17.33;100.00
24230;BME280;12362;50.004;8.006;2023-07-22T06:25:55;100477.19;;;17.30;100.00
24230;BME280;12362;50.004;8.006;2023-07-22T06:28:21;100478.03;;;17.30;100.00
24230;BME280;12362;50.004;8.006;2023-07-22T06:30:47;100474.53;;;17.64;100.00
24230;BME280;12362;50.004;8.006;2023-07-22T06:33:12;100466.81;;;17.95;100.00
24230;BME280;12362;50.004;8.006;2023-07-22T06:35:38;100471.25;;;18.38;100.00
24230;BME280;12362;50.004;8.006;2023-07-22T06:38:03;100473.75;;;18.29;100.00
24230;BME280;12362;50.004;8.006;2023-07-22T06:40:28;100475.38;;;18.63;100.00
24230;BME280;12362;50.004;8.006;2023-07-22T06:42:54;100484.03;;;18.43;100.00
24230;BME280;12362;50.004;8.006;2023-07-22T06:45:19;100485.38;;;18.27;100.00
24230;BME280;12362;50.004;8.006;2023-07-22T06:47:45;100478.78;;;18.21;100.00
24230;BME280;12362;50.004;8.006;2023-07-22T06:50:12;100477.81;;;18.44;100.00
24230;BME280;12362;50.004;8.006;2023-07-22T06:52:38;100471.34;;;18.59;100.00
24230;BME280;12362;50.004;8.006;2023-07-22T06:55:04;100475.34;;;18.74;100.00
24230;BME280;12362;50.004;8.006;2023-07-22T06:57:30;100474.16;;;18.78;100.00
24230;BME280;12362;50.004;8.006;2023-07-22T06:59:56;100477.66;;;18.99;100.00
24230;BME280;12362;50.004;8.006;2023-07-22T07:02:21;100471.44;;;19.31;100.00
24230;BME280;12362;50.004;8.006;2023-07-22T07:04:47;100481.59;;;19.35;100.00
24230;BME280;12362;50.004;8.006;2023-07-22T07:07:13;100466.94;;;19.42;100.00
24230;BME280;12362;50.004;8.006;2023-07-22T07:09:39;100469.47;;;19.64;100.00
24230;BME280;12362;50.004;8.006;2023-07-22T07:12:05;100465.31;;;20.12;100.00
24230;BME280;12362;50.004;8.006;2023-07-22T07:14:33;100462.44;;;19.74;100.00
24230;BME280;12362;50.004;8.006;2023-07-22T07:16:59;100464.69;;;19.99;100.00
24230;BME280;12362;50.004;8.006;2023-07-22T07:19:28;100463.47;;;20.42;100.00
24230;BME280;12362;50.004;8.006;2023-07-22T07:21:53;100454.63;;;20.72;100.00
24230;BME280;12362;50.004;8.006;2023-07-22T07:24:19;100453.41;;;21.04;99.21
24230;BME280;12362;50.004;8.006;2023-07-22T07:26:44;100449.38;;;20.91;99.91
24230;BME280;12362;50.004;8.006;2023-07-22T07:29:10;100456.75;;;20.78;100.00
24230;BME280;12362;50.004;8.006;2023-07-22T07:31:37;100440.69;;;21.55;96.57
24230;BME280;12362;50.004;8.006;2023-07-22T07:34:02;100453.00;;;21.08;100.00
24230;BME280;12362;50.004;8.006;2023-07-22T07:36:28;100465.75;;;20.75;98.46
24230;BME280;12362;50.004;8.006;2023-07-22T07:38:53;100466.16;;;20.71;100.00
24230;BME280;12362;50.004;8.006;2023-07-22T07:41:19;100452.31;;;21.07;100.00
24230;BME280;12362;50.004;8.006;2023-07-22T07:43:44;100451.34;;;20.98;100.00
24230;BME280;12362;50.004;8.006;2023-07-22T07:46:17;100457.84;;;21.22;100.00
24230;BME280;12362;50.004;8.006;2023-07-22T07:48:44;100445.88;;;21.56;100.00
24230;BME280;12362;50.004;8.006;2023-07-22T07:51:12;100446.88;;;22.01;95.13
24230;BME280;12362;50.004;8.006;2023-07-22T07:53:38;100445.50;;;22.24;94.17
24230;BME280;12362;50.004;8.006;2023-07-22T07:56:04;100444.50;;;21.98;93.08
24230;BME280;12362;50.004;8.006;2023-07-22T07:58:29;100454.56;;;21.85;97.45
24230;BME280;12362;50.004;8.006;2023-07-22T08:00:54;100443.03;;;21.77;96.33
24230;BME280;12362;50.004;8.006;2023-07-22T08:03:20;100446.31;;;21.42;98.48
24230;BME280;12362;50.004;8.006;2023-07-22T08:05:46;100438.63;;;21.68;93.65
24230;BME280;12362;50.004;8.006;2023-07-22T08:08:11;100441.53;;;21.74;92.33
24230;BME280;12362;50.004;8.006;2023-07-22T08:10:37;100451.59;;;21.33;95.14
24230;BME280;12362;50.004;8.006;2023-07-22T08:13:02;100450.63;;;21.24;93.76
24230;BME280;12362;50.004;8.006;2023-07-22T08:15:28;100453.84;;;21.18;96.61
24230;BME280;12362;50.004;8.006;2023-07-22T08:17:53;100453.81;;;21.00;95.38
24230;BME280;12362;50.004;8.006;2023-07-22T08:20:19;100457.44;;;21.08;96.21
24230;BME280;12362;50.004;8.006;2023-07-22T08:22:44;100453.00;;;21.08;97.12
24230;BME280;12362;50.004;8.006;2023-07-22T08:25:10;100455.63;;;21.18;96.96
24230;BME280;12362;50.004;8.006;2023-07-22T08:27:35;100451.59;;;21.23;99.54
24230;BME280;12362;50.004;8.006;2023-07-22T08:30:01;100452.13;;;21.27;100.00
24230;BME280;12362;50.004;8.006;2023-07-22T08:32:26;100451.72;;;21.41;100.00
24230;BME280;12362;50.004;8.006;2023-07-22T08:34:51;100450.19;;;21.38;100.00
24230;BME280;12362;50.004;8.006;2023-07-22T08:37:17;100447.63;;;21.75;100.00
24230;BME280;12362;50.004;8.006;2023-07-22T08:39:42;100444.59;;;21.51;98.75
24230;BME280;12362;50.004;8.006;2023-07-22T08:42:09;100445.63;;;20.93;100.00
24230;BME280;12362;50.004;8.006;2023-07-22T08:44:38;100462.72;;;20.80;100.00
24230;BME280;12362;50.004;8.006;2023-07-22T08:47:10;100446.88;;;21.08;100.00
24230;BME280;12362;50.004;8.006;2023-07-22T08:49:45;100448.09;;;21.32;99.04
24230;BME280;12362;50.004;8.006;2023-07-22T08:52:14;100439.47;;;21.49;99.38
24230;BME280;12362;50.004;8.006;2023-07-22T08:54:40;100451.31;;;21.17;100.00
24230;BME280;12362;50.004;8.006;2023-07-22T08:57:07;100451.22;;;20.90;100.00
24230;BME280;12362;50.004;8.006;2023-07-22T08:59:33;100442.53;;;21.54;100.00
24230;BME280;12362;50.004;8.006;2023-07-22T09:01:59;100440.53;;;21.85;94.73
24230;BME280;12362;50.004;8.006;2023-07-22T09:04:25;100450.50;;;21.91;95.14
24230;BME280;12362;50.004;8.006;2023-07-22T09:06:51;100439.81;;;22.73;89.25
24230;BME280;12362;50.004;8.006;2023-07-22T09:09:17;100432.34;;;23.71;84.38
24230;BME280;12362;50.004;8.006;2023-07-22T09:11:45;100429.22;;;24.42;73.13
24230;BME280;12362;50.004;8.006;2023-07-22T09:14:11;100429.84;;;23.70;77.29
24230;BME280;12362;50.004;8.006;2023-07-22T09:16:38;100436.03;;;24.37;73.45
24230;BME280;12362;50.004;8.006;2023-07-22T09:19:04;100412.63;;;25.29;68.62
24230;BME280;12362;50.004;8.006;2023-07-22T09:21:30;100417.28;;;25.27;66.66
24230;BME280;12362;50.004;8.006;2023-07-22T09:23:56;100417.59;;;23.69;74.16
24230;BME280;12362;50.004;8.006;2023-07-22T09:26:21;100421.91;;;23.70;75.66
24230;BME280;12362;50.004;8.006;2023-07-22T09:28:53;100421.78;;;24.04;72.32
24230;BME280;12362;50.004;8.006;2023-07-22T09:31:21;100409.38;;;24.62;68.71
24230;BME280;12362;50.004;8.006;2023-07-22T09:33:47;100415.38;;;24.23;70.79
24230;BME280;12362;50.004;8.006;2023-07-22T09:36:13;100414.69;;;24.62;65.36
24230;BME280;12362;50.004;8.006;2023-07-22T09:38:38;100403.47;;;25.32;64.77
24230;BME280;12362;50.004;8.006;2023-07-22T09:41:04;100391.81;;;26.11;64.49
24230;BME280;12362;50.004;8.006;2023-07-22T09:43:30;100394.06;;;25.91;60.06
24230;BME280;12362;50.004;8.006;2023-07-22T09:46:05;100383.03;;;26.02;59.03
24230;BME280;12362;50.004;8.006;2023-07-22T09:48:39;100372.09;;;26.80;55.91
24230;BME280;12362;50.004;8.006;2023-07-22T09:51:05;100377.91;;;26.23;55.12
24230;BME280;12362;50.004;8.006;2023-07-22T09:53:31;100368.78;;;27.23;52.89
24230;BME280;12362;50.004;8.006;2023-07-22T09:56:03;100366.59;;;26.82;52.69
24230;BME280;12362;50.004;8.006;2023-07-22T09:58:30;100356.56;;;27.58;51.43
24230;BME280;12362;50.004;8.006;2023-07-22T10:00:57;100361.00;;;26.91;50.84
24230;BME280;12362;50.004;8.006;2023-07-22T10:03:23;100352.31;;;27.34;48.58
24230;BME280;12362;50.004;8.006;2023-07-22T10:05:53;100344.44;;;27.04;48.76
24230;BME280;12362;50.004;8.006;2023-07-22T10:08:20;100348.38;;;25.80;52.20
24230;BME280;12362;50.004;8.006;2023-07-22T10:10:48;100354.97;;;25.14;54.15
24230;BME280;12362;50.004;8.006;2023-07-22T10:13:17;100353.13;;;24.90;57.24
24230;BME280;12362;50.004;8.006;2023-07-22T10:15:43;100350.13;;;24.78;54.67
24230;BME280;12362;50.004;8.006;2023-07-22T10:18:10;100349.31;;;24.85;54.49
24230;BME280;12362;50.004;8.006;2023-07-22T10:20:37;100351.81;;;24.86;54.34
24230;BME280;12362;50.004;8.006;2023-07-22T10:23:02;100342.84;;;24.95;53.72
24230;BME280;12362;50.004;8.006;2023-07-22T10:25:29;100349.53;;;24.34;54.49
24230;BME280;12362;50.004;8.006;2023-07-22T10:27:55;100353.16;;;24.09;55.84
24230;BME280;12362;50.004;8.006;2023-07-22T10:30:21;100348.53;;;24.35;56.58
24230;BME280;12362;50.004;8.006;2023-07-22T10:32:51;100351.00;;;24.13;57.32
24230;BME280;12362;50.004;8.006;2023-07-22T10:35:21;100351.78;;;23.72;57.17
24230;BME280;12362;50.004;8.006;2023-07-22T10:37:48;100349.38;;;23.53;57.67
24230;BME280;12362;50.004;8.006;2023-07-22T10:42:51;100345.41;;;23.83;58.46
24230;BME280;12362;50.004;8.006;2023-07-22T10:45:25;100340.91;;;23.83;55.96
24230;BME280;12362;50.004;8.006;2023-07-22T10:48:03;100345.06;;;23.52;56.91
24230;BME280;12362;50.004;8.006;2023-07-22T10:50:47;100347.88;;;23.76;59.48
24230;BME280;12362;50.004;8.006;2023-07-22T10:53:37;100339.97;;;24.49;58.51
24230;BME280;12362;50.004;8.006;2023-07-22T11:04:10;100313.59;;;27.38;50.29
24230;BME280;12362;50.004;8.006;2023-07-22T11:06:52;100306.31;;;27.32;46.71
24230;BME280;12362;50.004;8.006;2023-07-22T11:12:14;100293.22;;;26.72;46.95
24230;BME280;12362;50.004;8.006;2023-07-22T11:15:02;100295.16;;;26.77;46.62
24230;BME280;12362;50.004;8.006;2023-07-22T11:17:30;100300.59;;;25.86;48.11
24230;BME280;12362;50.004;8.006;2023-07-22T11:19:57;100293.41;;;26.48;48.42
24230;BME280;12362;50.004;8.006;2023-07-22T11:22:22;100293.06;;;26.51;48.70
24230;BME280;12362;50.004;8.006;2023-07-22T11:24:48;100288.47;;;26.96;46.78
24230;BME280;12362;50.004;8.006;2023-07-22T11:27:14;100287.81;;;26.35;46.35
24230;BME280;12362;50.004;8.006;2023-07-22T11:29:40;100295.16;;;26.10;48.07
24230;BME280;12362;50.004;8.006;2023-07-22T11:32:06;100292.84;;;26.30;50.02
24230;BME280;12362;50.004;8.006;2023-07-22T11:34:31;100284.06;;;26.52;48.29
24230;BME280;12362;50.004;8.006;2023-07-22T11:36:57;100283.13;;;27.18;45.47
24230;BME280;12362;50.004;8.006;2023-07-22T11:39:25;100275.25;;;26.88;46.72
24230;BME280;12362;50.004;8.006;2023-07-22T11:41:51;100273.84;;;27.58;45.15
24230;BME280;12362;50.004;8.006;2023-07-22T11:44:21;100268.75;;;27.91;44.19
24230;BME280;12362;50.004;8.006;2023-07-22T11:49:33;100272.75;;;27.67;42.62
24230;BME280;12362;50.004;8.006;2023-07-22T11:54:25;100252.75;;;27.77;44.33
24230;BME280;12362;50.004;8.006;2023-07-22T11:56:50;100240.28;;;28.61;41.03
24230;BME280;12362;50.004;8.006;2023-07-22T11:59:16;100236.88;;;28.46;41.34
24230;BME280;12362;50.004;8.006;2023-07-22T12:01:45;100243.53;;;27.94;41.01
24230;BME280;12362;50.004;8.006;2023-07-22T12:04:12;100250.97;;;27.34;42.35
24230;BME280;12362;50.004;8.006;2023-07-22T12:06:38;100241.72;;;27.66;43.59
24230;BME280;12362;50.004;8.006;2023-07-22T12:09:03;100250.78;;;27.65;41.22
24230;BME280;12362;50.004;8.006;2023-07-22T12:11:32;100237.75;;;27.62;41.58
24230;BME280;12362;50.004;8.006;2023-07-22T12:14:12;100228.25;;;28.23;39.96
24230;BME280;12362;50.004;8.006;2023-07-22T12:16:40;100234.34;;;27.82;39.52
24230;BME280;12362;50.004;8.006;2023-07-22T12:19:18;100231.69;;;27.82;40.51
24230;BME280;12362;50.004;8.006;2023-07-22T12:21:43;100222.47;;;28.68;40.39
24230;BME280;12362;50.004;8.006;2023-07-22T12:24:13;100230.50;;;27.70;39.97
24230;BME280;12362;50.004;8.006;2023-07-22T12:26:38;100225.06;;;27.49;40.04
24230;BME280;12362;50.004;8.006;2023-07-22T12:29:04;100238.69;;;26.96;39.85
24230;BME280;12362;50.004;8.006;2023-07-22T12:31:29;100229.59;;;27.20;40.79
24230;BME280;12362;50.004;8.006;2023-07-22T12:33:55;100235.41;;;27.38;39.72
24230;BME280;12362;50.004;8.006;2023-07-22T12:36:20;100228.03;;;27.89;39.28
24230;BME280;12362;50.004;8.006;2023-07-22T12:38:46;100223.97;;;27.58;39.73
24230;BME280;12362;50.004;8.006;2023-07-22T12:41:11;100235.13;;;27.47;39.78
24230;BME280;12362;50.004;8.006;2023-07-22T12:43:37;100232.84;;;27.94;38.82
24230;BME280;12362;50.004;8.006;2023-07-22T12:46:02;100230.53;;;27.91;38.63
24230;BME280;12362;50.004;8.006;2023-07-22T12:48:27;100219.63;;;28.76;37.56
24230;BME280;12362;50.004;8.006;2023-07-22T12:50:53;100216.13;;;28.96;37.85
24230;BME280;12362;50.004;8.006;2023-07-22T12:53:18;100205.56;;;29.62;37.28
24230;BME280;12362;50.004;8.006;2023-07-22T12:55:44;100200.28;;;29.35;36.21
24230;BME280;12362;50.004;8.006;2023-07-22T12:58:09;100207.66;;;28.65;37.17